createdAt,value
2018-05-09T00:02:24.174Z,3.50
2018-05-09T00:03:04.177Z,3.50
2018-05-09T00:04:25.676Z,3.80
2018-05-09T00:05:03.677Z,3.60
2018-05-09T00:06:03.679Z,3.40
2018-05-09T00:07:24.676Z,3.80
2018-05-09T00:08:06.173Z,3.60
2018-05-09T00:09:04.176Z,3.80
2018-05-09T00:10:04.180Z,3.50
2018-05-09T00:11:04.176Z,3.90
2018-05-09T00:12:04.748Z,3.80
2018-05-09T00:13:04.676Z,3.70
2018-05-09T00:14:04.676Z,3.80
2018-05-09T00:15:25.162Z,3.70
2018-05-09T00:16:05.176Z,3.60
2018-05-09T00:17:05.175Z,3.40
2018-05-09T00:18:05.181Z,3.70
2018-05-09T00:19:11.176Z,4.00
2018-05-09T00:20:05.675Z,3.60
2018-05-09T00:21:04.917Z,3.70
2018-05-09T00:22:05.675Z,3.70
2018-05-09T00:23:05.675Z,4.00
2018-05-09T00:24:06.179Z,3.80
2018-05-09T00:25:06.179Z,3.80
2018-05-09T00:26:06.177Z,3.60
2018-05-09T00:27:06.175Z,3.60
2018-05-09T00:28:08.675Z,3.50
2018-05-09T00:29:27.683Z,3.70
2018-05-09T00:30:07.607Z,3.50
2018-05-09T00:31:08.675Z,3.80
2018-05-09T00:32:06.304Z,3.40
2018-05-09T00:33:07.186Z,3.70
2018-05-09T00:34:07.178Z,3.80
2018-05-09T00:35:07.179Z,3.40
2018-05-09T00:36:07.628Z,3.70
2018-05-09T00:37:09.675Z,4.10
2018-05-09T00:38:07.677Z,3.40
2018-05-09T00:39:07.683Z,3.50
2018-05-09T00:40:07.674Z,3.70
2018-05-09T00:41:08.175Z,3.70
2018-05-09T00:42:22.182Z,3.80
2018-05-09T00:43:08.174Z,3.70
2018-05-09T00:44:08.218Z,4.00
2018-05-09T00:45:08.677Z,4.00
2018-05-09T00:46:08.674Z,3.70
2018-05-09T00:48:40.053Z,4.00
2018-05-09T00:49:40.091Z,4.10
2018-05-09T00:50:40.089Z,3.90
2018-05-09T00:51:39.686Z,3.90
2018-05-09T00:52:39.785Z,4.20
2018-05-09T00:53:41.563Z,3.50
2018-05-09T00:54:40.566Z,3.60
2018-05-09T00:55:42.012Z,3.80
2018-05-09T00:56:41.060Z,3.50
2018-05-09T00:57:40.282Z,3.50
2018-05-09T00:58:41.055Z,3.60
2018-05-09T00:59:40.555Z,3.80
2018-05-09T01:02:12.813Z,3.60
2018-05-09T01:03:13.744Z,3.80
2018-05-09T01:04:12.817Z,3.60
2018-05-09T01:06:43.858Z,3.70
2018-05-09T01:07:44.582Z,3.60
2018-05-09T01:08:44.589Z,3.60
2018-05-09T01:09:45.084Z,3.90
2018-05-09T01:11:05.299Z,3.70
2018-05-09T01:11:45.086Z,3.60
2018-05-09T01:12:45.091Z,3.80
2018-05-09T01:15:37.842Z,3.90
2018-05-09T01:16:16.860Z,4.10
2018-05-09T01:17:16.849Z,3.50
2018-05-09T01:18:17.349Z,3.90
2018-05-09T01:19:17.354Z,3.60
2018-05-09T01:20:17.349Z,3.50
2018-05-09T01:21:17.347Z,3.60
2018-05-09T01:22:18.847Z,3.90
2018-05-09T01:23:17.070Z,3.70
2018-05-09T01:24:17.852Z,4.00
2018-05-09T01:25:17.850Z,3.80
2018-05-09T01:26:41.345Z,3.90
2018-05-09T01:27:45.349Z,4.00
2018-05-09T01:28:18.348Z,3.90
2018-05-09T01:29:18.346Z,3.60
2018-05-09T01:31:50.097Z,3.50
2018-05-09T01:32:50.104Z,3.80
2018-05-09T01:33:50.604Z,3.80
2018-05-09T01:34:50.610Z,3.80
2018-05-09T01:35:50.604Z,3.80
2018-05-09T01:36:50.604Z,3.60
2018-05-09T01:37:51.108Z,3.70
2018-05-09T01:38:51.104Z,3.90
2018-05-09T01:39:51.103Z,3.80
2018-05-09T01:40:51.104Z,3.60
2018-05-09T01:41:50.701Z,4.00
2018-05-09T01:42:51.604Z,3.50
2018-05-09T01:43:51.612Z,3.80
2018-05-09T01:44:51.608Z,3.40
2018-05-09T01:45:58.104Z,3.80
2018-05-09T01:46:51.327Z,3.70
2018-05-09T01:47:52.058Z,3.50
2018-05-09T01:48:52.114Z,3.80
2018-05-09T01:49:52.104Z,3.80
2018-05-09T01:50:54.603Z,3.90
2018-05-09T01:51:52.606Z,3.40
2018-05-09T01:52:51.951Z,3.80
2018-05-09T01:53:52.604Z,4.00
2018-05-09T01:54:52.223Z,3.70
2018-05-09T01:55:53.103Z,4.10
2018-05-09T01:56:54.073Z,3.70
2018-05-09T01:57:53.103Z,3.90
2018-05-09T02:01:56.324Z,3.70
2018-05-09T02:02:56.330Z,4.20
2018-05-09T02:03:55.807Z,3.70
2018-05-09T02:04:56.832Z,4.10
2018-05-09T02:06:17.831Z,3.90
2018-05-09T02:06:56.847Z,4.10
2018-05-09T02:07:56.830Z,3.80
2018-05-09T02:09:18.334Z,4.00
2018-05-09T02:09:57.331Z,3.60
2018-05-09T02:11:18.333Z,3.60
2018-05-09T02:11:57.326Z,3.50
2018-05-09T02:13:18.837Z,3.70
2018-05-09T02:13:57.832Z,4.10
2018-05-09T02:15:19.763Z,3.80
2018-05-09T02:15:57.836Z,4.10
2018-05-09T02:16:58.331Z,3.80
2018-05-09T02:18:19.338Z,3.40
2018-05-09T02:19:12.360Z,3.70
2018-05-09T02:19:58.330Z,4.20
2018-05-09T02:20:57.928Z,4.10
2018-05-09T02:22:21.836Z,3.70
2018-05-09T02:22:58.837Z,3.80
2018-05-09T02:23:58.883Z,3.90
2018-05-09T02:24:59.332Z,4.00
2018-05-09T02:25:59.341Z,4.20
2018-05-09T02:27:21.831Z,3.70
2018-05-09T02:27:59.349Z,3.80
2018-05-09T02:29:00.808Z,3.80
2018-05-09T02:29:59.831Z,4.20
2018-05-09T02:30:59.834Z,4.40
2018-05-09T02:31:59.836Z,3.70
2018-05-09T02:33:21.336Z,4.00
2018-05-09T02:34:00.331Z,3.80
2018-05-09T02:35:00.331Z,3.90
2018-05-09T02:36:00.336Z,3.50
2018-05-09T02:37:06.827Z,4.00
2018-05-09T02:38:00.830Z,3.80
2018-05-09T02:39:06.839Z,4.10
2018-05-09T02:40:00.828Z,3.80
2018-05-09T02:41:22.332Z,4.10
2018-05-09T02:43:32.778Z,3.90
2018-05-09T02:44:32.714Z,3.70
2018-05-09T02:45:32.716Z,4.20
2018-05-09T02:46:33.216Z,4.10
2018-05-09T02:47:36.215Z,4.10
2018-05-09T02:48:33.225Z,4.00
2018-05-09T02:49:33.220Z,3.80
2018-05-09T02:50:54.716Z,3.70
2018-05-09T02:51:54.718Z,4.50
2018-05-09T02:52:40.714Z,3.70
2018-05-09T02:53:34.715Z,4.00
2018-05-09T02:54:33.329Z,4.30
2018-05-09T02:55:34.217Z,3.70
2018-05-09T02:56:34.215Z,3.50
2018-05-09T02:57:34.217Z,3.90
2018-05-09T02:58:55.761Z,3.70
2018-05-09T02:59:34.713Z,3.50
2018-05-09T03:00:39.702Z,4.30
2018-05-09T03:01:34.714Z,4.00
2018-05-09T03:02:55.716Z,3.90
2018-05-09T03:03:35.215Z,4.00
2018-05-09T03:04:56.215Z,3.90
2018-05-09T03:05:35.215Z,4.30
2018-05-09T03:06:35.215Z,4.00
2018-05-09T03:09:06.253Z,3.70
2018-05-09T03:10:06.972Z,4.10
2018-05-09T03:11:06.978Z,3.60
2018-05-09T03:12:07.471Z,4.00
2018-05-09T03:13:13.471Z,4.00
2018-05-09T03:14:07.508Z,3.80
2018-05-09T03:15:07.471Z,4.20
2018-05-09T03:16:29.904Z,4.00
2018-05-09T03:17:07.975Z,3.90
2018-05-09T03:18:07.968Z,4.00
2018-05-09T03:19:07.971Z,4.20
2018-05-09T03:20:08.470Z,4.30
2018-05-09T03:21:07.705Z,4.00
2018-05-09T03:22:08.475Z,3.70
2018-05-09T03:23:29.480Z,3.50
2018-05-09T03:24:08.970Z,3.80
2018-05-09T03:25:14.971Z,3.90
2018-05-09T03:26:09.028Z,3.80
2018-05-09T03:27:08.970Z,4.10
2018-05-09T03:28:08.974Z,4.00
2018-05-09T03:29:09.474Z,4.10
2018-05-09T03:31:40.138Z,3.70
2018-05-09T03:32:40.257Z,3.70
2018-05-09T03:33:40.857Z,3.70
2018-05-09T03:34:40.454Z,3.90
2018-05-09T03:35:41.357Z,4.20
2018-05-09T03:36:41.355Z,4.30
2018-05-09T03:37:41.361Z,3.70
2018-05-09T03:38:41.856Z,3.90
2018-05-09T03:39:41.080Z,4.00
2018-05-09T03:40:41.858Z,3.80
2018-05-09T03:41:41.328Z,3.90
2018-05-09T03:44:40.612Z,4.00
2018-05-09T03:45:14.611Z,3.90
2018-05-09T03:46:13.616Z,4.50
2018-05-09T03:48:45.366Z,4.30
2018-05-09T03:49:46.305Z,3.90
2018-05-09T03:50:44.840Z,4.60
2018-05-09T03:51:47.872Z,3.90
2018-05-09T03:52:51.873Z,3.90
2018-05-09T03:53:45.869Z,3.80
2018-05-09T03:54:45.876Z,3.60
2018-05-09T03:55:46.375Z,4.30
2018-05-09T03:56:46.374Z,3.90
2018-05-09T03:57:46.374Z,4.50
2018-05-09T03:58:46.379Z,4.40
2018-05-09T03:59:46.875Z,3.90
2018-05-09T04:02:07.872Z,3.70
2018-05-09T04:02:46.872Z,4.20
2018-05-09T04:04:08.375Z,4.50
2018-05-09T04:04:47.373Z,4.10
2018-05-09T04:05:47.373Z,4.30
2018-05-09T04:06:47.373Z,4.20
2018-05-09T04:07:48.881Z,4.00
2018-05-09T04:08:47.872Z,4.10
2018-05-09T04:09:47.873Z,4.10
2018-05-09T04:10:49.873Z,3.90
2018-05-09T04:13:35.587Z,4.10
2018-05-09T04:14:19.654Z,4.10
2018-05-09T04:16:51.405Z,4.50
2018-05-09T04:17:52.845Z,4.30
2018-05-09T04:18:51.411Z,4.40
2018-05-09T04:19:51.027Z,4.30
2018-05-09T04:20:51.924Z,4.60
2018-05-09T04:21:51.909Z,4.20
2018-05-09T04:22:51.913Z,4.40
2018-05-09T04:23:52.412Z,4.70
2018-05-09T04:24:52.504Z,4.30
2018-05-09T04:25:51.757Z,4.00
2018-05-09T04:26:52.423Z,4.20
2018-05-09T04:27:51.897Z,4.20
2018-05-09T04:30:26.109Z,4.40
2018-05-09T04:31:45.183Z,4.20
2018-05-09T04:32:25.174Z,4.10
2018-05-09T04:33:26.676Z,3.80
2018-05-09T04:34:45.677Z,3.70
2018-05-09T04:35:24.917Z,4.20
2018-05-09T04:36:46.673Z,4.40
2018-05-09T04:37:46.195Z,3.90
2018-05-09T04:38:27.176Z,4.40
2018-05-09T04:39:25.176Z,4.00
2018-05-09T04:40:26.114Z,4.30
2018-05-09T04:41:46.676Z,4.50
2018-05-09T04:42:46.676Z,4.10
2018-05-09T04:43:25.676Z,4.30
2018-05-09T04:44:27.151Z,4.10
2018-05-09T04:45:28.183Z,3.90
2018-05-09T04:46:26.181Z,4.10
2018-05-09T04:47:25.531Z,4.20
2018-05-09T04:48:26.176Z,4.20
2018-05-09T04:49:26.683Z,4.30
2018-05-09T04:50:27.106Z,4.40
2018-05-09T04:51:26.674Z,3.90
2018-05-09T04:52:26.674Z,4.30
2018-05-09T04:53:41.182Z,4.50
2018-05-09T04:54:27.173Z,3.80
2018-05-09T04:55:27.299Z,4.00
2018-05-09T04:56:27.176Z,4.00
2018-05-09T04:57:52.176Z,4.40
2018-05-09T04:58:26.900Z,4.20
2018-05-09T04:59:27.674Z,4.10
2018-05-09T05:00:27.675Z,4.60
2018-05-09T05:01:30.175Z,4.50
2018-05-09T05:02:29.604Z,4.30
2018-05-09T05:03:28.173Z,4.20
2018-05-09T05:04:28.210Z,4.40
2018-05-09T05:05:28.672Z,3.90
2018-05-09T05:08:21.422Z,4.20
2018-05-09T05:09:22.427Z,4.80
2018-05-09T05:10:01.426Z,4.00
2018-05-09T05:11:00.436Z,4.00
2018-05-09T05:12:21.928Z,4.20
2018-05-09T05:13:00.935Z,4.40
2018-05-09T05:15:34.111Z,4.30
2018-05-09T05:16:35.551Z,4.10
2018-05-09T05:17:34.118Z,4.20
2018-05-09T05:18:48.636Z,4.20
2018-05-09T05:19:34.618Z,4.30
2018-05-09T05:20:55.618Z,3.80
2018-05-09T05:21:34.618Z,3.90
2018-05-09T05:22:57.051Z,4.10
2018-05-09T05:23:35.133Z,4.00
2018-05-09T05:24:36.079Z,3.90
2018-05-09T05:25:36.593Z,3.70
2018-05-09T05:26:49.611Z,4.30
2018-05-09T05:27:35.618Z,4.10
2018-05-09T05:28:35.618Z,4.20
2018-05-09T05:29:35.618Z,4.40
2018-05-09T05:30:36.120Z,3.80
2018-05-09T05:31:36.122Z,4.20
2018-05-09T05:32:35.490Z,4.20
2018-05-09T05:33:36.121Z,4.60
2018-05-09T05:34:58.585Z,4.10
2018-05-09T05:35:36.626Z,4.20
2018-05-09T05:36:36.618Z,4.40
2018-05-09T05:37:57.618Z,4.00
2018-05-09T05:38:45.582Z,4.30
2018-05-09T05:39:58.124Z,4.00
2018-05-09T05:40:37.114Z,3.80
2018-05-09T05:41:58.113Z,4.50
2018-05-09T05:42:51.628Z,4.30
2018-05-09T05:43:37.618Z,4.00
2018-05-09T05:44:37.617Z,4.30
2018-05-09T05:45:37.624Z,4.00
2018-05-09T05:48:10.378Z,3.80
2018-05-09T05:49:15.429Z,4.20
2018-05-09T05:50:30.422Z,4.20
2018-05-09T05:51:09.423Z,4.40
2018-05-09T05:52:09.923Z,4.20
2018-05-09T05:54:40.568Z,4.10
2018-05-09T05:55:41.321Z,4.10
2018-05-09T05:57:02.321Z,4.40
2018-05-09T05:59:14.556Z,5.20
2018-05-09T06:02:05.934Z,5.80
2018-05-09T06:02:50.952Z,5.80
2018-05-09T06:03:45.884Z,5.50
2018-05-09T06:04:45.444Z,6.10
2018-05-09T06:05:45.445Z,5.70
2018-05-09T06:06:44.667Z,5.60
2018-05-09T06:07:51.443Z,5.90
2018-05-09T06:08:45.436Z,5.50
2018-05-09T06:09:45.937Z,5.60
2018-05-09T06:10:45.161Z,5.20
2018-05-09T06:11:45.946Z,4.70
2018-05-09T06:12:45.942Z,4.70
2018-05-09T06:13:46.437Z,5.40
2018-05-09T06:14:47.435Z,4.80
2018-05-09T06:15:46.439Z,5.20
2018-05-09T06:16:46.447Z,4.80
2018-05-09T06:19:18.201Z,5.10
2018-05-09T06:20:41.209Z,5.00
2018-05-09T06:21:17.692Z,5.40
2018-05-09T06:24:11.009Z,5.10
2018-05-09T06:24:56.038Z,4.90
2018-05-09T06:25:49.954Z,4.70
2018-05-09T06:27:12.461Z,4.90
2018-05-09T06:27:50.477Z,4.50
2018-05-09T06:29:11.462Z,5.30
2018-05-09T06:29:51.886Z,5.20
2018-05-09T06:31:04.976Z,5.30
2018-05-09T06:31:50.179Z,5.50
2018-05-09T06:34:29.882Z,5.10
2018-05-09T06:35:22.451Z,4.60
2018-05-09T06:36:22.451Z,4.50
2018-05-09T06:37:24.942Z,4.70
2018-05-09T06:38:28.943Z,4.70
2018-05-09T06:40:55.909Z,4.80
2018-05-09T06:41:54.456Z,4.70
2018-05-09T06:43:14.922Z,4.80
2018-05-09T06:45:47.179Z,4.50
2018-05-09T06:46:47.186Z,4.00
2018-05-09T06:47:25.672Z,4.40
2018-05-09T06:48:32.688Z,4.00
2018-05-09T06:49:26.686Z,4.40
2018-05-09T06:50:32.692Z,4.90
2018-05-09T06:51:30.119Z,4.40
2018-05-09T06:52:41.190Z,4.60
2018-05-09T06:53:27.189Z,4.50
2018-05-09T06:54:47.561Z,4.90
2018-05-09T06:55:48.192Z,4.70
2018-05-09T06:56:50.687Z,4.60
2018-05-09T06:57:31.618Z,4.50
2018-05-09T06:58:27.005Z,3.80
2018-05-09T06:59:27.687Z,4.50
2018-05-09T07:00:34.688Z,4.10
2018-05-09T07:01:42.215Z,3.80
2018-05-09T07:02:28.188Z,3.70
2018-05-09T07:03:28.187Z,3.60
2018-05-09T07:04:28.188Z,3.50
2018-05-09T07:06:59.946Z,3.90
2018-05-09T07:08:01.416Z,4.00
2018-05-09T07:08:59.631Z,3.40
2018-05-09T07:09:59.630Z,3.40
2018-05-09T07:11:02.442Z,3.70
2018-05-09T07:12:00.456Z,3.70
2018-05-09T07:13:00.446Z,3.70
2018-05-09T07:15:55.231Z,3.70
2018-05-09T07:18:27.682Z,3.50
2018-05-09T07:19:07.224Z,3.60
2018-05-09T07:20:06.682Z,3.90
2018-05-09T07:22:35.502Z,3.60
2018-05-09T07:23:34.854Z,3.80
2018-05-09T07:24:35.514Z,4.10
2018-05-09T07:25:36.018Z,4.00
2018-05-09T07:26:36.009Z,3.80
2018-05-09T07:27:35.361Z,3.60
2018-05-09T07:28:36.010Z,4.10
2018-05-09T07:29:36.510Z,3.90
2018-05-09T07:30:36.515Z,3.80
2018-05-09T07:31:36.542Z,3.60
2018-05-09T07:32:35.981Z,3.50
2018-05-09T07:34:00.940Z,4.10
2018-05-09T07:34:37.032Z,3.80
2018-05-09T07:35:58.010Z,3.30
2018-05-09T07:36:37.015Z,3.70
2018-05-09T07:37:36.484Z,3.60
2018-05-09T07:38:36.587Z,3.60
2018-05-09T07:39:36.699Z,3.90
2018-05-09T07:40:57.810Z,4.10
2018-05-09T07:41:36.914Z,3.70
2018-05-09T07:42:40.009Z,3.70
2018-05-09T07:43:37.112Z,3.60
2018-05-09T07:44:38.013Z,3.60
2018-05-09T07:45:39.008Z,3.10
2018-05-09T07:46:38.012Z,3.40
2018-05-09T07:47:38.652Z,3.20
2018-05-09T07:48:40.509Z,3.30
2018-05-09T07:49:38.511Z,3.10
2018-05-09T07:50:38.535Z,3.40
2018-05-09T07:51:39.011Z,3.30
2018-05-09T07:53:00.052Z,3.40
2018-05-09T07:53:39.009Z,3.50
2018-05-09T07:54:39.009Z,3.60
2018-05-09T07:55:39.523Z,3.60
2018-05-09T07:58:16.913Z,4.00
2018-05-09T07:59:10.272Z,3.40
2018-05-09T08:00:12.919Z,3.50
2018-05-09T08:01:17.421Z,3.10
2018-05-09T08:02:32.420Z,3.20
2018-05-09T08:03:13.427Z,3.50
2018-05-09T08:04:11.421Z,3.50
2018-05-09T08:06:43.196Z,3.70
2018-05-09T08:07:43.201Z,3.40
2018-05-09T08:08:43.195Z,3.30
2018-05-09T08:09:57.701Z,3.20
2018-05-09T08:10:57.714Z,3.30
2018-05-09T08:12:04.701Z,3.40
2018-05-09T08:12:58.276Z,3.00
2018-05-09T08:13:43.311Z,2.90
2018-05-09T08:14:46.201Z,3.20
2018-05-09T08:15:44.206Z,3.50
2018-05-09T08:16:43.684Z,3.40
2018-05-09T08:17:44.702Z,3.50
2018-05-09T08:18:44.703Z,3.40
2018-05-09T08:19:44.705Z,3.70
2018-05-09T08:20:44.704Z,3.70
2018-05-09T08:21:44.334Z,3.80
2018-05-09T08:22:45.203Z,3.40
2018-05-09T08:23:45.216Z,3.40
2018-05-09T08:24:46.174Z,3.40
2018-05-09T08:25:47.713Z,3.90
2018-05-09T08:26:44.930Z,3.50
2018-05-09T08:27:45.710Z,3.70
2018-05-09T08:28:45.705Z,3.60
2018-05-09T08:29:45.314Z,3.30
2018-05-09T08:30:45.436Z,3.40
2018-05-09T08:31:48.202Z,3.70
2018-05-09T08:32:46.202Z,3.60
2018-05-09T08:33:45.810Z,3.30
2018-05-09T08:34:46.714Z,3.30
2018-05-09T08:35:46.706Z,2.90
2018-05-09T08:36:46.807Z,3.30
2018-05-09T08:37:47.204Z,3.10
2018-05-09T08:38:47.204Z,2.90
2018-05-09T08:39:47.205Z,2.90
2018-05-09T08:40:46.689Z,3.20
2018-05-09T08:41:47.704Z,3.20
2018-05-09T08:42:46.951Z,3.20
2018-05-09T08:43:49.189Z,3.20
2018-05-09T08:44:47.155Z,3.20
2018-05-09T08:45:48.234Z,2.80
2018-05-09T08:46:47.353Z,3.10
2018-05-09T08:47:47.449Z,3.00
2018-05-09T08:48:48.204Z,2.90
2018-05-09T08:49:48.198Z,3.30
2018-05-09T08:50:59.135Z,3.30
2018-05-09T08:51:47.964Z,3.00
2018-05-09T08:52:48.704Z,3.40
2018-05-09T08:54:09.199Z,2.90
2018-05-09T08:54:53.141Z,3.40
2018-05-09T08:55:55.201Z,3.40
2018-05-09T08:56:49.215Z,3.10
2018-05-09T08:57:48.691Z,2.90
2018-05-09T08:58:49.708Z,3.50
2018-05-09T09:01:27.098Z,3.60
2018-05-09T09:02:35.103Z,3.30
2018-05-09T09:03:21.103Z,3.00
2018-05-09T09:04:23.687Z,3.10
2018-05-09T09:05:25.534Z,3.40
2018-05-09T09:09:24.293Z,3.20
2018-05-09T09:10:45.414Z,3.90
2018-05-09T09:11:25.041Z,3.60
2018-05-09T09:12:25.528Z,3.30
2018-05-09T09:13:25.523Z,3.30
2018-05-09T09:14:46.523Z,3.40
2018-05-09T09:15:25.555Z,3.40
2018-05-09T09:16:25.136Z,3.40
2018-05-09T09:17:25.233Z,3.50
2018-05-09T09:18:46.454Z,3.40
2018-05-09T09:19:25.430Z,3.50
2018-05-09T09:20:46.588Z,3.20
2018-05-09T09:21:26.527Z,3.60
2018-05-09T09:22:26.525Z,3.30
2018-05-09T09:23:26.532Z,3.20
2018-05-09T09:24:27.523Z,3.10
2018-05-09T09:25:27.492Z,3.60
2018-05-09T09:26:50.025Z,3.90
2018-05-09T09:27:26.996Z,3.20
2018-05-09T09:28:27.031Z,3.40
2018-05-09T09:29:33.524Z,3.70
2018-05-09T09:31:58.957Z,3.60
2018-05-09T09:32:58.965Z,3.20
2018-05-09T09:34:05.467Z,3.40
2018-05-09T09:36:30.151Z,3.50
2018-05-09T09:38:30.345Z,3.40
2018-05-09T09:39:33.840Z,3.30
2018-05-09T09:40:30.570Z,3.10
2018-05-09T09:41:53.887Z,3.00
2018-05-09T09:42:31.553Z,3.30
2018-05-09T09:43:52.371Z,2.90
2018-05-09T09:46:05.154Z,3.40
2018-05-09T09:47:04.615Z,3.20
2018-05-09T09:48:17.152Z,3.00
2018-05-09T09:49:02.757Z,2.70
2018-05-09T09:50:02.858Z,3.10
2018-05-09T09:51:03.652Z,3.00
2018-05-09T09:52:31.150Z,3.00
2018-05-09T09:53:03.257Z,3.10
2018-05-09T09:55:34.826Z,2.80
2018-05-09T09:56:34.926Z,3.00
2018-05-09T09:57:35.056Z,3.00
2018-05-09T09:58:38.062Z,2.90
2018-05-09T09:59:36.043Z,3.10
2018-05-09T10:00:42.983Z,2.60
2018-05-09T10:01:36.131Z,2.60
2018-05-09T10:02:35.686Z,2.60
2018-05-09T10:03:38.543Z,2.50
2018-05-09T10:04:56.883Z,2.80
2018-05-09T10:05:36.002Z,2.50
2018-05-09T10:06:43.053Z,2.50
2018-05-09T10:09:10.690Z,2.50
2018-05-09T10:10:10.250Z,3.30
2018-05-09T10:11:10.251Z,2.60
2018-05-09T10:13:42.531Z,2.60
2018-05-09T10:16:14.076Z,2.70
2018-05-09T10:17:14.074Z,2.20
2018-05-09T10:18:14.082Z,2.60
2018-05-09T10:19:14.565Z,3.40
2018-05-09T10:20:20.560Z,2.30
2018-05-09T10:21:41.565Z,3.00
2018-05-09T10:22:35.565Z,2.70
2018-05-09T10:23:21.136Z,2.40
2018-05-09T10:24:17.068Z,2.40
2018-05-09T10:25:29.093Z,2.80
2018-05-09T10:26:29.566Z,2.50
2018-05-09T10:27:35.657Z,2.50
2018-05-09T10:28:14.764Z,2.50
2018-05-09T10:29:14.889Z,2.80
2018-05-09T10:31:47.191Z,2.90
2018-05-09T10:32:46.557Z,2.60
2018-05-09T10:33:53.338Z,2.80
2018-05-09T10:35:01.708Z,2.50
2018-05-09T10:36:01.699Z,2.50
2018-05-09T10:36:47.700Z,2.90
2018-05-09T10:37:49.701Z,2.70
2018-05-09T10:39:15.197Z,2.50
2018-05-09T10:39:47.486Z,2.40
2018-05-09T10:40:50.200Z,2.60
2018-05-09T10:41:49.204Z,2.80
2018-05-09T10:47:46.914Z,3.00
2018-05-09T10:49:05.158Z,2.70
2018-05-09T10:49:45.007Z,3.00
2018-05-09T10:50:45.017Z,2.30
2018-05-09T10:52:05.518Z,3.00
2018-05-09T10:52:51.430Z,2.70
2018-05-09T10:53:44.796Z,2.80
2018-05-09T10:54:45.429Z,2.60
2018-05-09T10:56:06.937Z,2.80
2018-05-09T10:56:45.933Z,2.80
2018-05-09T10:57:45.277Z,2.80
2018-05-09T10:58:45.935Z,2.60
2018-05-09T10:59:52.429Z,2.40
2018-05-09T11:00:46.432Z,2.50
2018-05-09T11:01:46.435Z,2.60
2018-05-09T11:02:52.436Z,3.00
2018-05-09T11:08:34.551Z,2.50
2018-05-09T11:12:15.992Z,3.00
2018-05-09T11:14:48.472Z,3.00
2018-05-09T11:15:47.511Z,2.70
2018-05-09T11:17:15.015Z,2.70
2018-05-09T11:17:51.546Z,2.60
2018-05-09T11:18:48.013Z,2.60
2018-05-09T11:19:48.053Z,2.70
2018-05-09T11:20:50.518Z,2.70
2018-05-09T11:21:47.752Z,3.00
2018-05-09T11:22:48.510Z,2.60
2018-05-09T11:24:04.943Z,2.30
2018-05-09T11:24:55.942Z,2.50
2018-05-09T11:25:48.246Z,2.90
2018-05-09T11:26:51.015Z,3.00
2018-05-09T11:29:20.663Z,3.00
2018-05-09T11:34:55.130Z,3.40
2018-05-09T11:36:00.072Z,2.70
2018-05-09T11:36:55.140Z,2.50
2018-05-09T11:37:57.673Z,2.90
2018-05-09T11:38:55.646Z,2.90
2018-05-09T11:39:54.999Z,2.90
2018-05-09T11:40:58.144Z,2.50
2018-05-09T11:41:56.140Z,2.40
2018-05-09T11:44:33.540Z,2.80
2018-05-09T11:45:26.902Z,2.80
2018-05-09T11:46:33.547Z,3.20
2018-05-09T11:47:30.049Z,2.80
2018-05-09T11:48:34.047Z,3.00
2018-05-09T11:49:28.046Z,2.80
2018-05-09T11:50:27.533Z,3.20
2018-05-09T11:51:35.484Z,3.20
2018-05-09T11:52:28.550Z,3.20
2018-05-09T11:53:28.551Z,3.10
2018-05-09T11:54:49.552Z,3.00
2018-05-09T11:55:28.547Z,2.90
2018-05-09T11:56:29.048Z,3.90
2018-05-09T11:57:28.307Z,3.00
2018-05-09T11:58:28.417Z,2.90
2018-05-09T11:59:50.048Z,2.60
2018-05-09T12:00:38.480Z,2.50
2018-05-09T12:01:43.548Z,3.70
2018-05-09T12:02:29.550Z,3.10
2018-05-09T12:03:32.048Z,2.70
2018-05-09T12:04:29.171Z,2.90
2018-05-09T12:05:51.053Z,2.70
2018-05-09T12:06:51.049Z,3.00
2018-05-09T12:07:50.524Z,3.00
2018-05-09T12:08:51.555Z,2.70
2018-05-09T12:09:32.560Z,2.90
2018-05-09T12:10:51.681Z,3.00
2018-05-09T12:11:30.563Z,3.10
2018-05-09T12:17:42.407Z,2.90
2018-05-09T12:18:49.076Z,2.70
2018-05-09T12:20:06.577Z,2.90
2018-05-09T12:20:43.574Z,2.90
2018-05-09T12:21:43.589Z,3.00
2018-05-09T12:22:59.562Z,3.00
2018-05-09T12:23:46.072Z,2.90
2018-05-09T12:26:15.066Z,2.80
2018-05-09T12:27:16.009Z,3.00
2018-05-09T12:28:16.014Z,2.80
2018-05-09T12:29:16.008Z,2.80
2018-05-09T12:30:16.509Z,2.90
2018-05-09T12:31:36.607Z,3.30
2018-05-09T12:32:37.507Z,3.10
2018-05-09T12:33:16.509Z,2.90
2018-05-09T12:34:15.990Z,2.80
2018-05-09T12:35:16.131Z,2.80
2018-05-09T12:36:16.225Z,2.90
2018-05-09T12:37:18.483Z,3.30
2018-05-09T12:38:17.007Z,3.10
2018-05-09T12:39:19.508Z,3.30
2018-05-09T12:40:17.508Z,2.80
2018-05-09T12:41:17.507Z,2.90
2018-05-09T12:42:16.996Z,3.00
2018-05-09T12:43:18.014Z,3.20
2018-05-09T12:44:41.010Z,2.90
2018-05-09T12:45:18.006Z,2.80
2018-05-09T12:47:49.005Z,3.10
2018-05-09T12:48:49.811Z,3.20
2018-05-09T12:49:49.707Z,3.30
2018-05-09T12:50:52.215Z,3.30
2018-05-09T12:51:50.213Z,3.20
2018-05-09T12:52:52.206Z,3.10
2018-05-09T12:53:50.206Z,3.10
2018-05-09T12:55:17.708Z,3.30
2018-05-09T12:55:49.947Z,3.30
2018-05-09T12:56:50.707Z,3.20
2018-05-09T12:57:51.207Z,3.40
2018-05-09T12:58:51.206Z,3.10
2018-05-09T12:59:51.204Z,3.70
2018-05-09T13:01:05.212Z,3.40
2018-05-09T13:01:53.206Z,3.00
2018-05-09T13:02:51.706Z,3.30
2018-05-09T13:03:51.711Z,3.20
2018-05-09T13:04:53.735Z,3.10
2018-05-09T13:05:58.209Z,3.00
2018-05-09T13:06:52.208Z,3.00
2018-05-09T13:07:51.447Z,2.80
2018-05-09T13:10:25.198Z,2.60
2018-05-09T13:11:23.766Z,2.70
2018-05-09T13:12:23.769Z,2.70
2018-05-09T13:13:26.266Z,3.20
2018-05-09T13:14:38.271Z,3.00
2018-05-09T13:16:55.805Z,2.80
2018-05-09T13:17:55.815Z,3.10
2018-05-09T13:18:55.813Z,2.90
2018-05-09T13:19:58.312Z,3.30
2018-05-09T13:20:56.312Z,2.80
2018-05-09T13:22:17.317Z,2.90
2018-05-09T13:22:57.244Z,3.00
2018-05-09T13:23:55.923Z,2.70
2018-05-09T13:24:56.821Z,2.80
2018-05-09T13:26:17.810Z,3.10
2018-05-09T13:26:56.812Z,3.00
2018-05-09T13:27:56.425Z,3.00
2018-05-09T13:28:57.313Z,3.10
2018-05-09T13:29:57.320Z,2.80
2018-05-09T13:31:17.819Z,3.50
2018-05-09T13:31:57.812Z,3.20
2018-05-09T13:32:59.821Z,3.00
2018-05-09T13:33:57.812Z,3.00
2018-05-09T13:34:57.298Z,3.00
2018-05-09T13:35:58.312Z,2.90
2018-05-09T13:36:57.547Z,3.20
2018-05-09T13:37:58.315Z,2.90
2018-05-09T13:39:00.745Z,3.00
2018-05-09T13:40:19.897Z,3.20
2018-05-09T13:41:00.818Z,3.00
2018-05-09T13:42:19.816Z,3.60
2018-05-09T13:42:58.812Z,3.50
2018-05-09T13:45:29.930Z,3.50
2018-05-09T13:46:32.533Z,3.70
2018-05-09T13:47:52.114Z,3.10
2018-05-09T13:48:32.568Z,3.10
2018-05-09T13:49:37.101Z,3.50
2018-05-09T13:50:30.589Z,3.50
2018-05-09T13:51:45.642Z,3.40
2018-05-09T13:52:37.602Z,3.10
2018-05-09T13:53:53.621Z,3.40
2018-05-09T13:56:05.253Z,3.40
2018-05-09T13:57:05.268Z,3.70
2018-05-09T13:58:30.266Z,3.40
2018-05-09T13:59:03.759Z,3.40
2018-05-09T14:00:24.763Z,3.40
2018-05-09T14:01:24.105Z,3.60
2018-05-09T14:02:24.803Z,3.20
2018-05-09T14:03:25.267Z,3.40
2018-05-09T14:05:35.570Z,3.60
2018-05-09T14:06:35.580Z,3.50
2018-05-09T14:07:35.578Z,3.70
2018-05-09T14:08:36.076Z,3.90
2018-05-09T14:09:35.338Z,3.60
2018-05-09T14:10:36.081Z,3.40
2018-05-09T14:11:36.079Z,3.60
2018-05-09T14:12:35.690Z,3.40
2018-05-09T14:13:35.798Z,3.60
2018-05-09T14:14:36.573Z,4.10
2018-05-09T14:15:36.177Z,3.60
2018-05-09T14:16:58.104Z,3.70
2018-05-09T14:17:37.504Z,3.40
2018-05-09T14:18:58.082Z,3.60
2018-05-09T14:19:37.072Z,3.60
2018-05-09T14:20:58.575Z,3.50
2018-05-09T14:21:37.585Z,3.80
2018-05-09T14:22:52.575Z,3.10
2018-05-09T14:23:37.571Z,3.40
2018-05-09T14:24:38.072Z,3.60
2018-05-09T14:25:38.076Z,3.90
2018-05-09T14:26:38.072Z,3.40
2018-05-09T14:27:39.525Z,4.50
2018-05-09T14:28:44.586Z,3.50
2018-05-09T14:29:38.572Z,3.60
2018-05-09T14:30:38.572Z,3.60
2018-05-09T14:31:59.569Z,4.00
2018-05-09T14:32:45.075Z,3.60
2018-05-09T14:33:42.004Z,3.20
2018-05-09T14:34:39.073Z,3.70
2018-05-09T14:35:39.071Z,3.40
2018-05-09T14:38:10.174Z,3.70
2018-05-09T14:39:13.815Z,3.20
2018-05-09T14:40:14.315Z,3.80
2018-05-09T14:41:11.382Z,3.60
2018-05-09T14:42:11.390Z,3.60
2018-05-09T14:43:10.747Z,4.00
2018-05-09T14:44:11.384Z,3.80
2018-05-09T14:45:11.004Z,3.50
2018-05-09T14:48:03.583Z,3.50
2018-05-09T14:49:04.283Z,3.80
2018-05-09T14:49:43.293Z,3.40
2018-05-09T14:50:49.784Z,3.50
2018-05-09T14:51:43.019Z,3.80
2018-05-09T14:53:04.784Z,3.90
2018-05-09T14:54:04.788Z,3.70
2018-05-09T14:57:47.028Z,3.60
2018-05-09T14:58:46.398Z,3.70
2018-05-09T14:59:47.029Z,3.70
2018-05-09T15:00:49.529Z,3.90
2018-05-09T15:02:07.748Z,3.70
2018-05-09T15:02:47.529Z,3.80
2018-05-09T15:04:02.031Z,3.80
2018-05-09T15:06:19.301Z,3.20
2018-05-09T15:07:18.663Z,4.00
2018-05-09T15:09:40.805Z,3.40
2018-05-09T15:10:19.805Z,3.80
2018-05-09T15:12:51.337Z,3.80
2018-05-09T15:13:51.347Z,3.50
2018-05-09T15:14:51.341Z,3.70
2018-05-09T15:18:56.575Z,3.10
2018-05-09T15:19:54.626Z,3.70